Jenkins, Illinois
Current Conditions -  °F | °C
As of 9:35 AM on Saturday 22 Nov 2014 (Local Time) from KAAA Reporting Station
Broken Clouds Broken Clouds  
Wind Chill: 45°   Ceiling: 8000
Heat Index: 49°   Visibility: 10mi
Dew Point: 42°   Wind: 9mph
Humidity: 75%   Direction: 200°SSW
Pressure: 30.04"   Gusts: 20mph
Location:  40.143°N, 88.9637°W
Report Text: KAAA 221535Z AUTO 20008G17KT 10SM SCT026 SCT033 BKN080 10/05 A3004 RMK AO2 T00950053
Loading
Personal Weather Stations






























Interactive Weather Map New forecast layout! Learn more

10-Day Weather Forecast

Advertisements
Track Severe Weather on mobile